createdAt,value
2023-02-11T00:00:23.348Z,99693.56
2023-02-11T00:02:50.501Z,99687.31
2023-02-11T00:05:17.590Z,99690.03
2023-02-11T00:07:44.908Z,99681.94
2023-02-11T00:10:11.990Z,99681.59
2023-02-11T00:12:39.065Z,99684.22
2023-02-11T00:15:08.066Z,99684.97
2023-02-11T00:17:35.176Z,99678.41
2023-02-11T00:20:02.308Z,99678.81
2023-02-11T00:22:29.391Z,99688.84
2023-02-11T00:24:57.260Z,99688.41
2023-02-11T00:27:24.333Z,99691.13
2023-02-11T00:29:51.581Z,99688.41
2023-02-11T00:32:18.720Z,99675.31
2023-02-11T00:34:45.830Z,99677.25
2023-02-11T00:37:13.617Z,99676.88
2023-02-11T00:39:40.756Z,99669.97
2023-02-11T00:42:08.168Z,99668.88
2023-02-11T00:44:35.380Z,99655.31
2023-02-11T00:47:02.399Z,99655.69
2023-02-11T00:49:29.428Z,99643.72
2023-02-11T00:51:56.667Z,99646.41
2023-02-11T00:54:23.742Z,99649.03
2023-02-11T00:56:50.810Z,99633.94
2023-02-11T00:59:17.953Z,99625.78
2023-02-11T01:01:45.100Z,99614.25
2023-02-11T01:04:12.364Z,99613.50
2023-02-11T01:06:39.422Z,99604.91
2023-02-11T01:09:06.506Z,99593.72
2023-02-11T01:11:33.599Z,99585.53
2023-02-11T01:14:00.676Z,99580.16
2023-02-11T01:16:27.759Z,99573.09
2023-02-11T01:18:54.933Z,99589.16
2023-02-11T01:21:22.117Z,99585.28
2023-02-11T01:23:49.180Z,99589.09
2023-02-11T01:26:17.081Z,99591.72
2023-02-11T01:28:44.440Z,99601.66
2023-02-11T01:31:11.657Z,99605.78
2023-02-11T01:33:38.944Z,99601.16
2023-02-11T01:36:07.257Z,99604.19
2023-02-11T01:38:35.180Z,99607.25
2023-02-11T01:41:07.727Z,99595.34
2023-02-11T01:43:46.566Z,99582.59
2023-02-11T01:46:35.390Z,99578.72
2023-02-11T01:49:11.519Z,99566.84
2023-02-11T01:51:58.918Z,99561.53
2023-02-11T01:54:49.199Z,99565.06
2023-02-11T01:57:23.339Z,99563.81
2023-02-11T02:00:11.001Z,99551.34
2023-02-11T02:03:02.960Z,99546.94
2023-02-11T02:05:42.109Z,99541.91
2023-02-11T02:08:21.589Z,99546.78
2023-02-11T02:10:53.838Z,99541.31
2023-02-11T02:13:21.119Z,99551.56
2023-02-11T02:15:59.899Z,99548.88
2023-02-11T02:18:37.886Z,99556.56
2023-02-11T02:21:22.110Z,99554.63
2023-02-11T02:23:58.303Z,99546.53
2023-02-11T02:26:44.293Z,99555.72
2023-02-11T02:29:40.733Z,99551.06
2023-02-11T02:32:38.831Z,99554.41
2023-02-11T02:35:25.926Z,99544.31
2023-02-11T02:38:28.219Z,99547.66
2023-02-11T02:40:59.723Z,99538.63
2023-02-11T02:43:27.802Z,99530.53
2023-02-11T02:45:55.247Z,99513.56
2023-02-11T02:48:31.798Z,99515.09
2023-02-11T02:51:15.756Z,99531.97
2023-02-11T02:54:00.290Z,99533.38
2023-02-11T02:57:12.272Z,99529.41
2023-02-11T03:00:02.054Z,99524.66
2023-02-11T03:02:45.630Z,99536.56
2023-02-11T03:05:21.405Z,99532.56
2023-02-11T03:07:57.253Z,99530.22
2023-02-11T03:10:34.530Z,99532.38
2023-02-11T03:13:02.784Z,99527.28
2023-02-11T03:15:32.678Z,99516.84
2023-02-11T03:18:01.998Z,99511.75
2023-02-11T03:20:30.851Z,99506.66
2023-02-11T03:23:08.762Z,99488.53
2023-02-11T03:25:46.196Z,99473.19
2023-02-11T03:28:21.894Z,99466.16
2023-02-11T03:31:14.041Z,99470.72
2023-02-11T03:33:54.420Z,99469.72
2023-02-11T03:36:32.613Z,99475.38
2023-02-11T03:39:00.403Z,99464.47
2023-02-11T03:41:27.689Z,99473.66
2023-02-11T03:43:57.114Z,99467.06
2023-02-11T03:46:29.103Z,99455.38
2023-02-11T03:49:01.544Z,99458.06
2023-02-11T03:51:29.538Z,99449.13
2023-02-11T03:53:58.504Z,99448.69
2023-02-11T03:56:28.878Z,99455.59
2023-02-11T03:58:56.029Z,99462.84
2023-02-11T04:01:23.199Z,99465.13
2023-02-11T04:03:50.292Z,99475.81
2023-02-11T04:06:17.353Z,99473.78
2023-02-11T04:08:44.554Z,99472.59
2023-02-11T04:11:11.601Z,99470.94
2023-02-11T04:13:38.715Z,99465.84
2023-02-11T04:16:05.897Z,99450.06
2023-02-11T04:18:33.033Z,99450.19
2023-02-11T04:21:00.157Z,99447.16
2023-02-11T04:23:27.418Z,99437.66
2023-02-11T04:25:54.664Z,99443.81
2023-02-11T04:28:21.800Z,99439.59
2023-02-11T04:30:51.909Z,99433.84
2023-02-11T04:33:19.001Z,99425.34
2023-02-11T04:35:46.112Z,99430.00
2023-02-11T04:38:13.775Z,99425.66
2023-02-11T04:40:40.960Z,99439.47
2023-02-11T04:43:08.127Z,99440.34
2023-02-11T04:45:35.390Z,99435.28
2023-02-11T04:48:03.325Z,99441.13
2023-02-11T04:50:30.625Z,99449.84
2023-02-11T04:52:57.699Z,99435.59
2023-02-11T04:55:24.752Z,99435.28
2023-02-11T04:57:51.785Z,99439.91
2023-02-11T05:00:19.279Z,99448.78
2023-02-11T05:02:46.371Z,99447.59
2023-02-11T05:05:13.492Z,99459.91
2023-02-11T05:07:41.048Z,99473.00
2023-02-11T05:10:08.315Z,99470.28
2023-02-11T05:12:35.354Z,99470.63
2023-02-11T05:15:02.518Z,99457.88
2023-02-11T05:17:29.900Z,99457.44
2023-02-11T05:19:56.966Z,99468.56
2023-02-11T05:22:24.060Z,99457.00
2023-02-11T05:24:51.124Z,99461.97
2023-02-11T05:27:18.199Z,99457.44
2023-02-11T05:29:45.273Z,99462.84
2023-02-11T05:32:12.376Z,99467.81
2023-02-11T05:34:39.424Z,99465.41
2023-02-11T05:37:06.527Z,99463.06
2023-02-11T05:39:33.706Z,99468.34
2023-02-11T05:42:00.851Z,99456.78
2023-02-11T05:44:27.964Z,99464.13
2023-02-11T05:46:55.008Z,99458.72
2023-02-11T05:49:22.081Z,99452.88
2023-02-11T05:51:49.384Z,99446.28
2023-02-11T05:54:17.035Z,99449.84
2023-02-11T05:56:45.008Z,99452.13
2023-02-11T05:59:14.522Z,99453.63
2023-02-11T06:01:41.649Z,99445.53
2023-02-11T06:04:09.043Z,99456.56
2023-02-11T06:06:36.116Z,99455.38
2023-02-11T06:09:03.469Z,99452.53
2023-02-11T06:11:30.548Z,99449.41
2023-02-11T06:13:57.589Z,99446.91
2023-02-11T06:16:24.762Z,99445.28
2023-02-11T06:18:51.902Z,99446.06
2023-02-11T06:21:19.095Z,99449.06
2023-02-11T06:23:46.152Z,99450.88
2023-02-11T06:26:21.818Z,99444.28
2023-02-11T06:28:49.572Z,99444.41
2023-02-11T06:31:17.159Z,99451.78
2023-02-11T06:33:44.525Z,99455.22
2023-02-11T06:36:15.446Z,99451.78
2023-02-11T06:38:42.550Z,99456.88
2023-02-11T06:41:11.479Z,99451.13
2023-02-11T06:43:38.622Z,99447.66
2023-02-11T06:46:05.899Z,99461.94
2023-02-11T06:48:33.525Z,99449.28
2023-02-11T06:51:05.450Z,99448.09
2023-02-11T06:53:35.962Z,99445.84
2023-02-11T06:56:07.551Z,99453.41
2023-02-11T06:58:35.023Z,99444.41
2023-02-11T07:01:10.224Z,99437.81
2023-02-11T07:03:39.345Z,99431.34
2023-02-11T07:06:12.987Z,99434.88
2023-02-11T07:08:40.524Z,99437.72
2023-02-11T07:11:12.259Z,99453.19
2023-02-11T07:13:39.388Z,99448.66
2023-02-11T07:16:12.922Z,99442.50
2023-02-11T07:18:40.094Z,99441.72
2023-02-11T07:21:08.863Z,99446.28
2023-02-11T07:23:36.839Z,99441.19
2023-02-11T07:26:12.402Z,99446.91
2023-02-11T07:28:40.618Z,99451.56
2023-02-11T07:31:15.998Z,99453.19
2023-02-11T07:33:46.000Z,99451.25
2023-02-11T07:36:14.715Z,99449.72
2023-02-11T07:38:42.250Z,99451.03
2023-02-11T07:41:11.772Z,99453.31
2023-02-11T07:43:39.819Z,99449.41
2023-02-11T07:46:09.110Z,99447.13
2023-02-11T07:48:36.206Z,99437.28
2023-02-11T07:51:26.581Z,99440.75
2023-02-11T07:53:55.485Z,99445.84
2023-02-11T07:56:23.019Z,99446.59
2023-02-11T07:58:50.520Z,99443.88
2023-02-11T08:01:25.348Z,99443.56
2023-02-11T08:03:53.077Z,99455.78
2023-02-11T08:06:21.434Z,99448.19
2023-02-11T08:08:49.179Z,99452.75
2023-02-11T08:11:18.961Z,99451.09
2023-02-11T08:13:46.586Z,99454.13
2023-02-11T08:16:28.928Z,99454.13
2023-02-11T08:18:57.859Z,99452.50
2023-02-11T08:21:25.280Z,99451.31
2023-02-11T08:23:52.563Z,99441.25
2023-02-11T08:26:26.006Z,99455.22
2023-02-11T08:28:54.573Z,99448.72
2023-02-11T08:31:26.770Z,99446.44
2023-02-11T08:33:55.054Z,99448.28
2023-02-11T08:36:23.640Z,99439.00
2023-02-11T08:38:50.778Z,99443.66
2023-02-11T08:41:18.266Z,99436.69
2023-02-11T08:43:47.194Z,99443.66
2023-02-11T08:46:17.029Z,99444.72
2023-02-11T08:48:45.081Z,99438.72
2023-02-11T08:51:20.906Z,99442.97
2023-02-11T08:53:48.215Z,99438.19
2023-02-11T08:56:16.556Z,99449.66
2023-02-11T08:58:43.962Z,99439.16
2023-02-11T09:01:17.663Z,99454.41
2023-02-11T09:03:44.755Z,99446.94
2023-02-11T09:06:13.900Z,99451.16
2023-02-11T09:08:45.327Z,99454.63
2023-02-11T09:11:13.780Z,99464.88
2023-02-11T09:13:42.594Z,99451.25
2023-02-11T09:16:17.439Z,99453.06
2023-02-11T09:18:45.619Z,99456.84
2023-02-11T09:21:13.212Z,99459.00
2023-02-11T09:23:43.490Z,99465.16
2023-02-11T09:26:15.762Z,99454.91
2023-02-11T09:28:42.885Z,99467.09
2023-02-11T09:31:12.342Z,99471.00
2023-02-11T09:33:42.311Z,99461.59
2023-02-11T09:36:09.455Z,99482.91
2023-02-11T09:38:36.495Z,99485.81
2023-02-11T09:41:07.584Z,99490.03
2023-02-11T09:43:44.220Z,99493.06
2023-02-11T09:46:15.542Z,99490.47
2023-02-11T09:48:44.331Z,99493.19
2023-02-11T09:51:33.194Z,99501.63
2023-02-11T09:54:05.614Z,99492.97
2023-02-11T09:56:33.019Z,99516.16
2023-02-11T09:59:00.119Z,99512.69
2023-02-11T10:01:53.341Z,99517.34
2023-02-11T10:04:39.644Z,99517.47
2023-02-11T10:07:21.477Z,99514.00
2023-02-11T10:10:17.706Z,99514.00
2023-02-11T10:13:03.897Z,99508.91
2023-02-11T10:16:05.376Z,99505.66
2023-02-11T10:18:38.724Z,99493.19
2023-02-11T10:21:18.024Z,99510.94
2023-02-11T10:23:48.158Z,99500.66
2023-02-11T10:26:17.371Z,99502.50
2023-02-11T10:28:46.652Z,99500.41
2023-02-11T10:31:22.621Z,99492.63
2023-02-11T10:34:04.047Z,99495.66
2023-02-11T10:36:34.797Z,99490.25
2023-02-11T10:39:12.213Z,99486.63
2023-02-11T10:41:44.457Z,99479.72
2023-02-11T10:44:32.937Z,99473.00
2023-02-11T10:47:09.880Z,99472.41
2023-02-11T10:49:45.041Z,99474.25
2023-02-11T10:52:24.254Z,99456.38
2023-02-11T10:55:14.790Z,99462.97
2023-02-11T10:57:49.725Z,99456.97
2023-02-11T11:00:29.592Z,99450.91
2023-02-11T11:02:59.015Z,99459.50
2023-02-11T11:05:47.530Z,99460.13
2023-02-11T11:08:15.847Z,99463.03
2023-02-11T11:10:48.856Z,99473.28
2023-02-11T11:13:26.439Z,99485.22
2023-02-11T11:16:18.707Z,99486.13
2023-02-11T11:18:48.246Z,99488.41
2023-02-11T11:21:23.385Z,99479.50
2023-02-11T11:23:54.070Z,99478.19
2023-02-11T11:26:21.612Z,99485.88
2023-02-11T11:29:10.546Z,99474.56
2023-02-11T11:31:55.279Z,99475.47
2023-02-11T11:34:30.964Z,99469.31
2023-02-11T11:37:00.042Z,99475.03
2023-02-11T11:39:31.677Z,99467.19
2023-02-11T11:42:00.632Z,99458.31
2023-02-11T11:44:29.265Z,99462.41
2023-02-11T11:47:11.471Z,99468.91
2023-02-11T11:49:49.554Z,99453.84
2023-02-11T11:52:36.495Z,99464.56
2023-02-11T11:55:25.652Z,99443.94
2023-02-11T11:57:53.061Z,99457.59
2023-02-11T12:00:24.153Z,99455.81
2023-02-11T12:03:13.072Z,99454.19
2023-02-11T12:06:07.524Z,99446.19
2023-02-11T12:08:46.495Z,99447.38
2023-02-11T12:11:16.516Z,99443.47
2023-02-11T12:13:59.363Z,99447.84
2023-02-11T12:16:54.952Z,99460.63
2023-02-11T12:19:52.943Z,99455.53
2023-02-11T12:22:44.399Z,99461.25
2023-02-11T12:25:25.443Z,99454.31
2023-02-11T12:28:23.657Z,99460.94
2023-02-11T12:31:03.358Z,99467.28
2023-02-11T12:33:58.328Z,99472.34
2023-02-11T12:36:47.421Z,99471.94
2023-02-11T12:39:26.214Z,99464.56
2023-02-11T12:42:35.814Z,99473.44
2023-02-11T12:45:11.620Z,99473.75
2023-02-11T12:48:15.384Z,99465.31
2023-02-11T12:50:45.641Z,99471.03
2023-02-11T12:53:25.800Z,99464.84
2023-02-11T12:55:58.472Z,99468.78
2023-02-11T12:58:39.478Z,99458.94
2023-02-11T13:01:33.918Z,99455.47
2023-02-11T13:04:17.148Z,99466.03
2023-02-11T13:06:47.771Z,99449.44
2023-02-11T13:09:28.374Z,99453.78
2023-02-11T13:11:58.038Z,99454.53
2023-02-11T13:14:35.495Z,99444.47
2023-02-11T13:17:06.784Z,99453.50
2023-02-11T13:19:42.683Z,99450.03
2023-02-11T13:22:18.884Z,99450.78
2023-02-11T13:25:06.157Z,99451.53
2023-02-11T13:27:51.635Z,99448.81
2023-02-11T13:30:30.334Z,99447.63
2023-02-11T13:32:57.387Z,99453.34
2023-02-11T13:35:37.483Z,99449.31
2023-02-11T13:38:21.622Z,99452.13
2023-02-11T13:41:02.007Z,99448.22
2023-02-11T13:43:30.104Z,99458.31
2023-02-11T13:45:59.296Z,99455.59
2023-02-11T13:48:31.974Z,99456.69
2023-02-11T13:51:01.150Z,99453.06
2023-02-11T13:53:28.740Z,99450.38
2023-02-11T13:56:12.162Z,99436.38
2023-02-11T13:58:50.054Z,99444.19
2023-02-11T14:02:12.467Z,99457.28
2023-02-11T14:05:21.099Z,99449.16
2023-02-11T14:08:28.409Z,99456.84
2023-02-11T14:11:00.138Z,99453.38
2023-02-11T14:13:32.004Z,99453.72
2023-02-11T14:16:20.498Z,99448.59
2023-02-11T14:18:55.353Z,99453.25
2023-02-11T14:21:32.311Z,99452.19
2023-02-11T14:24:19.243Z,99451.13
2023-02-11T14:26:58.966Z,99437.72
2023-02-11T14:29:51.095Z,99445.41
2023-02-11T14:32:56.173Z,99442.69
2023-02-11T14:35:37.278Z,99448.84
2023-02-11T14:38:22.447Z,99450.06
2023-02-11T14:41:04.525Z,99457.00
2023-02-11T14:43:36.373Z,99456.25
2023-02-11T14:46:03.596Z,99450.38
2023-02-11T14:48:36.560Z,99449.31
2023-02-11T14:51:10.613Z,99461.22
2023-02-11T14:53:38.144Z,99463.91
2023-02-11T14:56:21.635Z,99455.78
2023-02-11T14:58:51.649Z,99456.25
2023-02-11T15:01:29.471Z,99461.78
2023-02-11T15:03:56.998Z,99470.34
2023-02-11T15:06:39.524Z,99470.34
2023-02-11T15:09:30.666Z,99459.69
2023-02-11T15:11:58.225Z,99452.78
2023-02-11T15:14:29.067Z,99458.66
2023-02-11T15:17:01.457Z,99476.88
2023-02-11T15:19:34.269Z,99472.19
2023-02-11T15:22:04.927Z,99467.97
2023-02-11T15:24:35.034Z,99470.25
2023-02-11T15:27:18.449Z,99476.53
2023-02-11T15:29:51.346Z,99486.50
2023-02-11T15:32:21.699Z,99480.44
2023-02-11T15:34:50.645Z,99486.97
2023-02-11T15:37:22.200Z,99483.47
2023-02-11T15:39:51.001Z,99481.97
2023-02-11T15:42:34.077Z,99478.03
2023-02-11T15:45:11.760Z,99479.25
2023-02-11T15:47:40.151Z,99475.78
2023-02-11T15:50:07.990Z,99480.91
2023-02-11T15:52:35.673Z,99486.63
2023-02-11T15:55:02.873Z,99471.56
2023-02-11T15:57:30.207Z,99478.94
2023-02-11T15:59:58.724Z,99475.34
2023-02-11T16:02:33.336Z,99482.28
2023-02-11T16:05:03.788Z,99486.16
2023-02-11T16:07:52.421Z,99486.63
2023-02-11T16:10:24.046Z,99484.66
2023-02-11T16:12:53.123Z,99487.06
2023-02-11T16:15:38.226Z,99490.53
2023-02-11T16:18:15.175Z,99484.66
2023-02-11T16:20:47.282Z,99495.50
2023-02-11T16:23:23.558Z,99495.84
2023-02-11T16:25:59.662Z,99507.00
2023-02-11T16:28:27.471Z,99504.28
2023-02-11T16:30:55.505Z,99505.03
2023-02-11T16:33:22.652Z,99508.78
2023-02-11T16:35:49.908Z,99515.31
2023-02-11T16:38:18.585Z,99514.53
2023-02-11T16:40:49.167Z,99519.06
2023-02-11T16:43:19.222Z,99506.72
2023-02-11T16:45:47.016Z,99516.06
2023-02-11T16:48:18.030Z,99522.66
2023-02-11T16:50:48.617Z,99524.75
2023-02-11T16:53:20.111Z,99523.84
2023-02-11T16:55:47.198Z,99527.47
2023-02-11T16:58:14.366Z,99520.22
2023-02-11T17:00:41.781Z,99523.69
2023-02-11T17:03:09.171Z,99524.00
2023-02-11T17:05:53.090Z,99528.66
2023-02-11T17:08:21.944Z,99537.09
2023-02-11T17:10:49.474Z,99537.88
2023-02-11T17:13:16.844Z,99531.38
2023-02-11T17:15:44.005Z,99539.63
2023-02-11T17:18:13.731Z,99537.38
2023-02-11T17:20:41.206Z,99538.81
2023-02-11T17:23:08.277Z,99531.88
2023-02-11T17:25:37.384Z,99540.16
2023-02-11T17:28:09.201Z,99541.03
2023-02-11T17:30:36.377Z,99548.09
2023-02-11T17:33:03.410Z,99551.25
2023-02-11T17:35:30.653Z,99548.66
2023-02-11T17:37:58.677Z,99560.56
2023-02-11T17:40:26.409Z,99557.22
2023-02-11T17:42:53.488Z,99560.69
2023-02-11T17:45:22.422Z,99563.22
2023-02-11T17:47:50.218Z,99565.59
2023-02-11T17:50:17.316Z,99563.31
2023-02-11T17:52:44.366Z,99561.94
2023-02-11T17:55:11.564Z,99568.53
2023-02-11T17:57:38.761Z,99568.22
2023-02-11T18:00:09.355Z,99579.50
2023-02-11T18:02:36.648Z,99575.28
2023-02-11T18:05:04.282Z,99565.97
2023-02-11T18:07:31.344Z,99571.38
2023-02-11T18:09:58.536Z,99562.19
2023-02-11T18:12:26.141Z,99557.53
2023-02-11T18:14:57.479Z,99554.16
2023-02-11T18:17:25.420Z,99556.44
2023-02-11T18:19:56.683Z,99554.81
2023-02-11T18:22:24.598Z,99555.88
2023-02-11T18:24:53.352Z,99555.88
2023-02-11T18:27:23.447Z,99557.84
2023-02-11T18:29:50.594Z,99569.75
2023-02-11T18:32:17.635Z,99563.88
2023-02-11T18:34:44.717Z,99574.28
2023-02-11T18:37:13.369Z,99572.66
2023-02-11T18:39:40.976Z,99577.19
2023-02-11T18:42:08.931Z,99579.47
2023-02-11T18:44:36.801Z,99580.22
2023-02-11T18:47:04.220Z,99566.34
2023-02-11T18:49:32.925Z,99574.16
2023-02-11T18:52:00.030Z,99581.41
2023-02-11T18:54:27.148Z,99586.41
2023-02-11T18:56:54.248Z,99590.19
2023-02-11T18:59:21.345Z,99596.34
2023-02-11T19:01:48.451Z,99590.19
2023-02-11T19:04:19.770Z,99591.69
2023-02-11T19:06:48.708Z,99600.88
2023-02-11T19:09:18.395Z,99614.00
2023-02-11T19:11:49.899Z,99612.38
2023-02-11T19:14:20.039Z,99608.91
2023-02-11T19:16:50.088Z,99612.06
2023-02-11T19:19:17.667Z,99605.22
2023-02-11T19:21:45.822Z,99614.56
2023-02-11T19:24:16.069Z,99612.59
2023-02-11T19:26:43.292Z,99620.44
2023-02-11T19:29:10.538Z,99628.09
2023-02-11T19:31:38.255Z,99621.19
2023-02-11T19:34:07.442Z,99627.47
2023-02-11T19:36:34.619Z,99638.63
2023-02-11T19:39:02.893Z,99648.72
2023-02-11T19:41:31.528Z,99633.97
2023-02-11T19:43:58.578Z,99640.16
2023-02-11T19:46:27.673Z,99650.53
2023-02-11T19:48:55.084Z,99645.13
2023-02-11T19:51:22.636Z,99657.03
2023-02-11T19:53:50.984Z,99669.38
2023-02-11T19:56:20.749Z,99665.91
2023-02-11T19:58:48.025Z,99666.78
2023-02-11T20:01:18.376Z,99660.63
2023-02-11T20:03:49.842Z,99668.63
2023-02-11T20:06:26.044Z,99674.78
2023-02-11T20:08:57.198Z,99684.47
2023-02-11T20:11:25.724Z,99683.56
2023-02-11T20:13:52.821Z,99683.56
2023-02-11T20:16:21.689Z,99686.59
2023-02-11T20:18:49.742Z,99686.50
2023-02-11T20:21:24.868Z,99695.69
2023-02-11T20:23:52.618Z,99701.44
2023-02-11T20:26:24.855Z,99706.84
2023-02-11T20:28:52.996Z,99715.72
2023-02-11T20:31:20.388Z,99712.56
2023-02-11T20:33:47.899Z,99721.81
2023-02-11T20:36:17.882Z,99724.06
2023-02-11T20:38:45.165Z,99722.13
2023-02-11T20:41:16.104Z,99705.53
2023-02-11T20:43:46.035Z,99710.53
2023-02-11T20:46:15.352Z,99708.25
2023-02-11T20:48:43.057Z,99710.53
2023-02-11T20:51:15.946Z,99709.63
2023-02-11T20:53:44.755Z,99701.09
2023-02-11T20:56:12.419Z,99716.03
2023-02-11T20:58:39.650Z,99705.19
2023-02-11T21:01:16.820Z,99692.38
2023-02-11T21:03:46.685Z,99693.13
2023-02-11T21:06:13.759Z,99703.22
2023-02-11T21:08:40.822Z,99699.31
2023-02-11T21:11:09.320Z,99698.13
2023-02-11T21:13:37.724Z,99694.97
2023-02-11T21:16:05.361Z,99706.59
2023-02-11T21:18:33.302Z,99710.34
2023-02-11T21:21:00.709Z,99714.13
2023-02-11T21:23:29.051Z,99719.13
2023-02-11T21:25:57.142Z,99714.91
2023-02-11T21:28:26.430Z,99713.69
2023-02-11T21:30:55.520Z,99709.47
2023-02-11T21:33:24.412Z,99715.66
2023-02-11T21:35:56.141Z,99732.34
2023-02-11T21:38:23.967Z,99720.75
2023-02-11T21:40:52.490Z,99716.41
2023-02-11T21:43:19.834Z,99730.31
2023-02-11T21:45:48.772Z,99726.38
2023-02-11T21:48:16.351Z,99740.25
2023-02-11T21:50:45.820Z,99746.88
2023-02-11T21:53:13.527Z,99749.16
2023-02-11T21:55:40.895Z,99741.66
2023-02-11T21:58:08.536Z,99745.13
2023-02-11T22:00:35.645Z,99738.19
2023-02-11T22:03:03.251Z,99740.78
2023-02-11T22:05:30.510Z,99756.28
2023-02-11T22:07:57.540Z,99765.94
2023-02-11T22:10:24.716Z,99762.03
2023-02-11T22:12:51.781Z,99766.59
2023-02-11T22:15:18.984Z,99762.34
2023-02-11T22:17:46.005Z,99759.63
2023-02-11T22:20:13.129Z,99760.41
2023-02-11T22:22:40.193Z,99765.84
2023-02-11T22:25:09.833Z,99763.13
2023-02-11T22:27:37.135Z,99767.34
2023-02-11T22:30:05.559Z,99785.44
2023-02-11T22:32:32.876Z,99776.84
2023-02-11T22:35:00.006Z,99771.00
2023-02-11T22:37:27.083Z,99777.63
2023-02-11T22:39:54.403Z,99784.56
2023-02-11T22:42:21.757Z,99784.88
2023-02-11T22:44:48.814Z,99785.31
2023-02-11T22:47:16.464Z,99780.22
2023-02-11T22:49:43.564Z,99784.75
2023-02-11T22:52:10.593Z,99789.75
2023-02-11T22:54:37.796Z,99792.91
2023-02-11T22:57:05.573Z,99784.44
2023-02-11T22:59:32.610Z,99800.72
2023-02-11T23:02:00.200Z,99799.53
2023-02-11T23:04:27.360Z,99799.53
2023-02-11T23:06:54.378Z,99808.28
2023-02-11T23:09:21.428Z,99801.69
2023-02-11T23:11:49.379Z,99808.94
2023-02-11T23:14:16.546Z,99811.19
2023-02-11T23:16:43.760Z,99816.63
2023-02-11T23:19:10.888Z,99811.97
2023-02-11T23:21:39.118Z,99803.06
2023-02-11T23:24:10.035Z,99810.44
2023-02-11T23:26:39.335Z,99819.78
2023-02-11T23:29:06.805Z,99823.69
2023-02-11T23:31:37.740Z,99823.25
2023-02-11T23:34:06.080Z,99817.38
2023-02-11T23:36:33.551Z,99806.53
2023-02-11T23:39:00.890Z,99813.16
2023-02-11T23:41:28.835Z,99812.72
2023-02-11T23:43:57.856Z,99809.81
2023-02-11T23:46:26.751Z,99816.75
2023-02-11T23:48:53.972Z,99819.47
2023-02-11T23:51:22.084Z,99811.44
2023-02-11T23:53:49.669Z,99827.28
2023-02-11T23:56:19.948Z,99826.09
2023-02-11T23:58:49.395Z,99827.03
